ADDS METAR Data INFO
IDs: Format: Raw Decoded Include TAF

Data at: 1013 UTC 14 Dec 2017

KJVW 140955Z AUTO 00000KT 10SM 01/00 A2994 RMK AO2
KJVW 140935Z AUTO 00000KT 10SM 02/M00 A2994 RMK AO2
KJVW 140915Z AUTO 00000KT 10SM 02/M00 A2994 RMK AO2
KJVW 140855Z AUTO 00000KT 10SM 02/00 A2994 RMK AO2
KJVW 140835Z AUTO 00000KT 10SM 02/M00 A2994 RMK AO2
KJVW 140815Z AUTO 00000KT 10SM 02/00 A2994 RMK AO2
KJVW 140755Z AUTO 00000KT 10SM 02/00 A2994 RMK AO2
KJVW 140735Z AUTO 00000KT 10SM 02/00 A2994 RMK AO2
KJVW 140715Z AUTO 00000KT 10SM 02/00 A2994 RMK AO2
KJVW 140655Z AUTO 00000KT 10SM 03/00 A2994 RMK AO2
KJVW 140635Z AUTO 00000KT 10SM 04/M01 A2994 RMK AO2
KJVW 140615Z AUTO 00000KT 10SM CLR 04/M01 A2995 RMK AO2
KJVW 140555Z AUTO 00000KT 10SM CLR 05/M01 A2995 RMK AO2
KJVW 140535Z AUTO 00000KT 10SM CLR 06/M01 A2996 RMK AO2
KJVW 140515Z AUTO 22003KT 10SM CLR 08/M02 A2996 RMK AO2
KJVW 140455Z AUTO 00000KT 10SM CLR 08/M02 A2996 RMK AO2
KJVW 140435Z AUTO VRB03KT 10SM CLR 08/M02 A2995 RMK AO2
KJVW 140415Z AUTO VRB03KT 10SM CLR 08/M02 A2995 RMK AO2
KJVW 140355Z AUTO 22004KT 10SM CLR 08/M02 A2995 RMK AO2
KJVW 140335Z AUTO 23004KT 10SM CLR 09/M02 A2995 RMK AO2
KJVW 140315Z AUTO 23005KT 10SM CLR 09/M02 A2994 RMK AO2
KJVW 140255Z AUTO 21004KT 10SM CLR 09/M02 A2994 RMK AO2
KJVW 140235Z AUTO 22004KT 10SM CLR 09/M03 A2994 RMK AO2
KJVW 140215Z AUTO 22005KT 10SM CLR 10/M03 A2994 RMK AO2
KJVW 140155Z AUTO 21007KT 10SM CLR 10/M03 A2993 RMK AO2
KJVW 140135Z AUTO 21005KT 10SM CLR 10/M03 A2994 RMK AO2
KJVW 140115Z AUTO 22007KT 10SM CLR 10/M03 A2994 RMK AO2
KJVW 140055Z AUTO 21004G10KT 10SM CLR 11/M04 A2994 RMK AO2
KJVW 140035Z AUTO 20006KT 10SM CLR 11/M04 A2994 RMK AO2
KJVW 140015Z AUTO 21006KT 10SM CLR 11/M04 A2993 RMK AO2
KJVW 132355Z AUTO 21005KT 10SM CLR 12/M04 A2993 RMK AO2
KJVW 132335Z AUTO 20005G10KT 10SM CLR 12/M04 A2993 RMK AO2
KJVW 132315Z AUTO 21004KT 10SM CLR 13/M05 A2993 RMK AO2
KJVW 132255Z AUTO 21009KT 10SM CLR 14/M05 A2994 RMK AO2
KJVW 132235Z AUTO 20009G15KT 9SM CLR 14/M04 A2994 RMK AO2
KJVW 132215Z AUTO 21011KT 9SM CLR 15/M04 A2995 RMK AO2
KJVW 132155Z AUTO 21010KT 9SM CLR 15/M04 A2997 RMK AO2
KJVW 132135Z AUTO 20007G14KT 9SM CLR 16/M04 A2997 RMK AO2
KJVW 132115Z AUTO 22011KT 9SM CLR 16/M05 A2997 RMK AO2
KJVW 132055Z AUTO 22009G14KT 9SM CLR 16/M05 A2998 RMK AO2
KJVW 132035Z AUTO 24011KT 9SM CLR 16/M05 A2998 RMK AO2
KJVW 132015Z AUTO 20009G17KT 9SM CLR 16/M04 A2998 RMK AO2
KJVW 131955Z AUTO 20011G17KT 9SM CLR 16/M04 A2998 RMK AO2
KJVW 131935Z AUTO 20011G17KT 170V230 9SM CLR 15/M04 A2999 RMK AO2
KJVW 131915Z AUTO 24010KT 200V260 9SM CLR 15/M04 A3000 RMK AO2
KJVW 131855Z AUTO 20010G16KT 9SM CLR 15/M04 A3001 RMK AO2
KJVW 131835Z AUTO 24009G17KT 190V270 9SM CLR 14/M05 A3003 RMK AO2
KJVW 131815Z AUTO VRB06G15KT 10SM CLR 14/M04 A3004 RMK AO2
KJVW 131755Z AUTO 21012G18KT 9SM CLR 13/M05 A3006 RMK AO2
KJVW 131735Z AUTO 22010KT 9SM CLR 13/M04 A3007 RMK AO2
KJVW 131715Z AUTO 21009KT 9SM CLR 12/M04 A3008 RMK AO2
KJVW 131655Z AUTO VRB06G13KT 9SM CLR 12/M03 A3010 RMK AO2
KJVW 131635Z AUTO 21010KT 10SM CLR 11/M03 A3011 RMK AO2
KJVW 131615Z AUTO 21010KT 9SM 09/M03 A3012 RMK AO2
KJVW 131555Z AUTO 21008KT 9SM 09/M03 A3013 RMK AO2
KJVW 131535Z AUTO 20006KT 8SM 08/M02 A3013 RMK AO2
KJVW 131515Z AUTO 00000KT 9SM 07/M01 A3013 RMK AO2
KJVW 131455Z AUTO 17005KT 9SM 05/M01 A3012 RMK AO2
KJVW 131435Z AUTO 00000KT 9SM 02/00 A3011 RMK AO2
KJVW 131415Z AUTO 00000KT 9SM 00/M01 A3012 RMK AO2
KJVW 131355Z AUTO 00000KT 7SM M01/M02 A3012 RMK AO2
KJVW 131335Z AUTO 00000KT 9SM M03/M03 A3013 RMK AO2
KJVW 131315Z AUTO 00000KT 7SM M03/M03 A3013 RMK AO2
KJVW 131255Z AUTO 00000KT 8SM M04/M04 A3013 RMK AO2
KJVW 131235Z AUTO 00000KT 8SM M04/M04 A3013 RMK AO2
KJVW 131215Z AUTO 00000KT 9SM M03/M03 A3012 RMK AO2
KJVW 131155Z AUTO 00000KT 9SM M03/M03 A3013 RMK AO2
KJVW 131135Z AUTO 00000KT 8SM CLR M03/M03 A3013 RMK AO2
KJVW 131115Z AUTO 00000KT 9SM CLR M03/M03 A3013 RMK AO2
KJVW 131055Z AUTO 00000KT 8SM CLR M03/M03 A3012 RMK AO2
KJVW 131035Z AUTO 00000KT 8SM M03/M03 A3012 RMK AO2
KJVW 131015Z AUTO 00000KT 10SM M03/M03 A3013 RMK AO2
KJVW 130955Z AUTO 00000KT 8SM M03/M03 A3014 RMK AO2
KJVW 130935Z AUTO 00000KT 9SM M03/M03 A3015 RMK AO2
KJVW 130915Z AUTO 00000KT 8SM M02/M03 A3015 RMK AO2
KJVW 130855Z AUTO 00000KT 9SM M03/M03 A3016 RMK AO2
KJVW 130835Z AUTO 00000KT 9SM M02/M02 A3016 RMK AO2
KJVW 130815Z AUTO 00000KT 7SM M02/M02 A3015 RMK AO2
KJVW 130755Z AUTO 00000KT 9SM CLR M02/M02 A3015 RMK AO2
KJVW 130735Z AUTO 00000KT 6SM BR CLR M02/M02 A3016 RMK AO2
KJVW 130715Z AUTO 00000KT 9SM CLR M02/M02 A3015 RMK AO2
KJVW 130655Z AUTO 00000KT 9SM CLR M02/M02 A3015 RMK AO2
KJVW 130635Z AUTO 00000KT 8SM M02/M02 A3016 RMK AO2
KJVW 130615Z AUTO 00000KT 10SM M01/M02 A3016 RMK AO2
KJVW 130555Z AUTO 00000KT 9SM M02/M02 A3017 RMK AO2
KJVW 130535Z AUTO 00000KT 9SM M01/M02 A3017 RMK AO2
KJVW 130515Z AUTO 00000KT 10SM M01/M01 A3018 RMK AO2
KJVW 130455Z AUTO 00000KT 10SM M01/M01 A3018 RMK AO2
KJVW 130435Z AUTO 00000KT 9SM 00/M01 A3018 RMK AO2
KJVW 130415Z AUTO 00000KT 10SM M00/M01 A3018 RMK AO2
KJVW 130355Z AUTO 00000KT 10SM 00/M01 A3019 RMK AO2
KJVW 130335Z AUTO 00000KT 10SM 01/M01 A3019 RMK AO2
KJVW 130315Z AUTO 00000KT 10SM 01/M01 A3018 RMK AO2
KJVW 130255Z AUTO 00000KT 10SM 02/M01 A3018 RMK AO2
KJVW 130235Z AUTO 00000KT 10SM 02/M02 A3018 RMK AO2
KJVW 130215Z AUTO 00000KT 10SM 03/M02 A3018 RMK AO2
KJVW 130155Z AUTO 00000KT 10SM CLR 03/M00 A3018 RMK AO2
KJVW 130135Z AUTO 00000KT 10SM CLR 04/M01 A3018 RMK AO2
KJVW 130115Z AUTO 30004KT 10SM CLR 05/M01 A3018 RMK AO2
KJVW 130055Z AUTO VRB04KT 10SM CLR 08/M02 A3018 RMK AO2
KJVW 130035Z AUTO 33005KT 10SM CLR 08/M01 A3018 RMK AO2
KJVW 130015Z AUTO 32005KT 10SM CLR 08/M01 A3017 RMK AO2
KJVW 122355Z AUTO 33004KT 10SM CLR 08/M01 A3017 RMK AO2
KJVW 122335Z AUTO 30006KT 10SM CLR 08/M01 A3017 RMK AO2
KJVW 122315Z AUTO 31006KT 10SM CLR 09/M00 A3016 RMK AO2
KJVW 122255Z AUTO 29007KT 9SM CLR 09/00 A3016 RMK AO2
KJVW 122235Z AUTO 31007KT 9SM CLR 12/M01 A3016 RMK AO2
KJVW 122215Z AUTO VRB05KT 9SM CLR 12/M01 A3016 RMK AO2